createdAt,value
2023-03-14T00:00:57.740Z,600.00
2023-03-14T00:04:57.656Z,601.00
2023-03-14T00:08:57.598Z,606.00
2023-03-14T00:12:57.514Z,607.00
2023-03-14T00:16:57.459Z,603.00
2023-03-14T00:20:57.365Z,598.00
2023-03-14T00:24:57.326Z,594.00
2023-03-14T00:28:57.248Z,589.00
2023-03-14T00:32:57.217Z,596.00
2023-03-14T00:36:57.122Z,595.00
2023-03-14T00:40:57.224Z,596.00
2023-03-14T00:44:57.042Z,592.00
2023-03-14T00:48:57.035Z,597.00
2023-03-14T00:52:56.954Z,596.00
2023-03-14T00:56:56.946Z,591.00
2023-03-14T01:00:56.877Z,591.00
2023-03-14T01:04:56.840Z,590.00
2023-03-14T01:08:56.778Z,596.00
2023-03-14T01:12:56.764Z,595.00
2023-03-14T01:16:56.690Z,597.00
2023-03-14T01:20:56.664Z,592.00
2023-03-14T01:24:56.610Z,588.00
2023-03-14T01:28:56.576Z,595.00
2023-03-14T01:32:56.577Z,592.00
2023-03-14T01:36:56.530Z,587.00
2023-03-14T01:40:56.474Z,587.00
2023-03-14T01:44:56.526Z,585.00
2023-03-14T01:48:56.432Z,587.00
2023-03-14T01:52:56.386Z,592.00
2023-03-14T01:56:56.359Z,585.00
2023-03-14T02:00:56.392Z,588.00
2023-03-14T02:04:56.349Z,587.00
2023-03-14T02:08:56.319Z,584.00
2023-03-14T02:12:56.297Z,586.00
2023-03-14T02:16:56.267Z,585.00
2023-03-14T02:20:56.255Z,585.00
2023-03-14T02:24:56.212Z,583.00
2023-03-14T02:28:56.228Z,584.00
2023-03-14T02:32:56.298Z,584.00
2023-03-14T02:36:56.172Z,584.00
2023-03-14T02:40:56.172Z,587.00
2023-03-14T02:44:56.120Z,585.00
2023-03-14T02:48:56.127Z,584.00
2023-03-14T02:52:56.115Z,581.00
2023-03-14T02:56:56.060Z,583.00
2023-03-14T03:00:56.134Z,586.00
2023-03-14T03:04:56.042Z,585.00
2023-03-14T03:08:56.017Z,578.00
2023-03-14T03:12:56.068Z,575.00
2023-03-14T03:16:56.034Z,581.00
2023-03-14T03:20:56.028Z,577.00
2023-03-14T03:24:56.266Z,579.00
2023-03-14T03:28:55.970Z,579.00
2023-03-14T03:32:56.080Z,587.00
2023-03-14T03:36:55.901Z,587.00
2023-03-14T03:40:55.944Z,584.00
2023-03-14T03:44:55.921Z,582.00
2023-03-14T03:48:55.946Z,586.00
2023-03-14T03:52:55.956Z,583.00
2023-03-14T03:56:55.914Z,585.00
2023-03-14T04:00:55.909Z,581.00
2023-03-14T04:04:55.906Z,584.00
2023-03-14T04:08:55.999Z,586.00
2023-03-14T04:12:55.891Z,587.00
2023-03-14T04:16:55.927Z,584.00
2023-03-14T04:20:55.939Z,581.00
2023-03-14T04:24:55.972Z,582.00
2023-03-14T04:28:55.946Z,590.00
2023-03-14T04:32:56.069Z,588.00
2023-03-14T04:36:56.250Z,589.00
2023-03-14T04:40:55.979Z,587.00
2023-03-14T04:44:55.986Z,588.00
2023-03-14T04:48:56.005Z,591.00
2023-03-14T04:52:56.045Z,582.00
2023-03-14T04:56:56.062Z,579.00
2023-03-14T05:00:56.091Z,578.00
2023-03-14T05:04:56.139Z,581.00
2023-03-14T05:08:56.122Z,585.00
2023-03-14T05:12:56.197Z,582.00
2023-03-14T05:16:56.233Z,582.00
2023-03-14T05:20:56.258Z,580.00
2023-03-14T05:24:56.304Z,586.00
2023-03-14T05:28:56.321Z,582.00
2023-03-14T05:32:56.450Z,580.00
2023-03-14T05:36:56.426Z,580.00
2023-03-14T05:40:56.417Z,579.00
2023-03-14T05:44:56.475Z,580.00
2023-03-14T05:48:56.494Z,573.00
2023-03-14T05:52:56.542Z,573.00
2023-03-14T05:56:56.550Z,572.00
2023-03-14T06:00:56.536Z,574.00
2023-03-14T06:04:56.604Z,574.00
2023-03-14T06:08:56.564Z,563.00
2023-03-14T06:12:56.610Z,563.00
2023-03-14T06:16:56.712Z,563.00
2023-03-14T06:20:56.653Z,562.00
2023-03-14T06:24:56.712Z,563.00
2023-03-14T06:28:56.690Z,562.00
2023-03-14T06:32:56.807Z,559.00
2023-03-14T06:36:56.851Z,554.00
2023-03-14T06:40:56.835Z,586.00
2023-03-14T06:44:56.756Z,690.00
2023-03-14T06:48:56.844Z,731.00
2023-03-14T06:52:56.836Z,807.00
2023-03-14T06:56:56.838Z,905.00
2023-03-14T07:00:56.513Z,1045.00
2023-03-14T07:04:56.425Z,1137.00
2023-03-14T07:08:56.862Z,1225.00
2023-03-14T07:12:56.193Z,1308.00
2023-03-14T07:16:56.012Z,1402.00
2023-03-14T07:20:55.806Z,1505.00
2023-03-14T07:24:55.614Z,1565.00
2023-03-14T07:28:55.394Z,1659.00
2023-03-14T07:32:55.253Z,1764.00
2023-03-14T07:36:55.032Z,1809.00
2023-03-14T07:40:54.842Z,1893.00
2023-03-14T07:44:54.601Z,1983.00
2023-03-14T07:48:54.904Z,2013.00
2023-03-14T07:52:54.384Z,2038.00
2023-03-14T07:56:53.977Z,2120.00
2023-03-14T08:00:53.841Z,2165.00
2023-03-14T08:04:53.773Z,2249.00
2023-03-14T08:08:53.952Z,2303.00
2023-03-14T08:12:53.516Z,2370.00
2023-03-14T08:16:53.328Z,2414.00
2023-03-14T08:20:53.214Z,2484.00
2023-03-14T08:24:53.064Z,2547.00
2023-03-14T08:28:52.862Z,2628.00
2023-03-14T08:32:52.675Z,2701.00
2023-03-14T08:36:52.418Z,2749.00
2023-03-14T08:40:52.404Z,2806.00
2023-03-14T08:44:52.388Z,2592.00
2023-03-14T08:48:51.891Z,2566.00
2023-03-14T08:52:51.845Z,1689.00
2023-03-14T08:56:51.893Z,2092.00
2023-03-14T09:00:51.886Z,1807.00
2023-03-14T09:04:51.911Z,1840.00
2023-03-14T09:08:51.917Z,1692.00
2023-03-14T09:12:51.966Z,1613.00
2023-03-14T09:16:51.843Z,1506.00
2023-03-14T09:20:51.611Z,1608.00
2023-03-14T09:24:51.452Z,1420.00
2023-03-14T09:28:51.268Z,1515.00
2023-03-14T09:32:51.107Z,1586.00
2023-03-14T09:36:50.885Z,1728.00
2023-03-14T09:40:50.925Z,1763.00
2023-03-14T09:44:50.496Z,1761.00
2023-03-14T09:48:50.389Z,1763.00
2023-03-14T09:52:50.440Z,1763.00
2023-03-14T09:56:49.849Z,1766.00
2023-03-14T10:00:49.795Z,1757.00
2023-03-14T10:04:49.455Z,1730.00
2023-03-14T10:08:49.531Z,1645.00
2023-03-14T10:12:49.635Z,1624.00
2023-03-14T10:16:49.559Z,1588.00
2023-03-14T10:20:49.445Z,1583.00
2023-03-14T10:24:49.510Z,1571.00
2023-03-14T10:28:49.921Z,1561.00
2023-03-14T10:32:50.042Z,1527.00
2023-03-14T10:36:49.412Z,1545.00
2023-03-14T10:40:49.418Z,1550.00
2023-03-14T10:44:49.419Z,1533.00
2023-03-14T10:48:49.506Z,1569.00
2023-03-14T10:53:02.119Z,1708.00
2023-03-14T10:56:50.433Z,1729.00
2023-03-14T11:00:49.014Z,1798.00
2023-03-14T11:04:48.923Z,1854.00
2023-03-14T11:08:48.714Z,1913.00
2023-03-14T11:12:48.525Z,1954.00
2023-03-14T11:16:49.761Z,1997.00
2023-03-14T11:20:48.184Z,2037.00
2023-03-14T11:24:48.177Z,2049.00
2023-03-14T11:28:48.134Z,2120.00
2023-03-14T11:32:48.173Z,2165.00
2023-03-14T11:36:48.444Z,2226.00
2023-03-14T11:40:48.934Z,2179.00
2023-03-14T11:44:48.060Z,2316.00
2023-03-14T11:48:48.022Z,2392.00
2023-03-14T11:52:48.065Z,2465.00
2023-03-14T11:56:47.902Z,2520.00
2023-03-14T12:00:47.694Z,2610.00
2023-03-14T12:04:49.078Z,2654.00
2023-03-14T12:08:47.273Z,2717.00
2023-03-14T12:12:47.024Z,2760.00
2023-03-14T12:16:46.802Z,2807.00
2023-03-14T12:20:46.763Z,2831.00
2023-03-14T12:24:46.495Z,2887.00
2023-03-14T12:28:46.237Z,2940.00
2023-03-14T12:32:46.003Z,2976.00
2023-03-14T12:36:45.614Z,2875.00
2023-03-14T12:40:45.457Z,2908.00
2023-03-14T12:44:45.155Z,2902.00
2023-03-14T12:48:44.986Z,2868.00
2023-03-14T12:52:46.379Z,2815.00
2023-03-14T12:56:44.454Z,2773.00
2023-03-14T13:00:44.314Z,2733.00
2023-03-14T13:04:44.039Z,2728.00
2023-03-14T13:08:44.303Z,2680.00
2023-03-14T13:12:43.469Z,2653.00
2023-03-14T13:16:43.528Z,2627.00
2023-03-14T13:20:43.010Z,2601.00
2023-03-14T13:24:42.984Z,2567.00
2023-03-14T13:28:42.662Z,2530.00
2023-03-14T13:32:42.546Z,2513.00
2023-03-14T13:36:42.184Z,2468.00
2023-03-14T13:40:42.000Z,2440.00
2023-03-14T13:44:41.818Z,2414.00
2023-03-14T13:48:41.575Z,1628.00
2023-03-14T13:52:41.427Z,1298.00
2023-03-14T13:56:41.875Z,1109.00
2023-03-14T14:00:41.211Z,905.00
2023-03-14T14:04:41.354Z,837.00
2023-03-14T14:08:41.423Z,791.00
2023-03-14T14:12:41.521Z,772.00
2023-03-14T14:16:41.506Z,728.00
2023-03-14T14:20:41.404Z,700.00
2023-03-14T14:24:41.495Z,674.00
2023-03-14T14:28:41.396Z,660.00
2023-03-14T14:32:41.412Z,629.00
2023-03-14T14:36:41.335Z,602.00
2023-03-14T14:40:41.359Z,579.00
2023-03-14T14:44:41.396Z,558.00
2023-03-14T14:48:41.432Z,547.00
2023-03-14T14:52:41.534Z,529.00
2023-03-14T14:56:41.581Z,518.00
2023-03-14T15:00:41.707Z,507.00
2023-03-14T15:04:41.794Z,500.00
2023-03-14T15:08:42.057Z,491.00
2023-03-14T15:12:42.063Z,486.00
2023-03-14T15:16:42.176Z,487.00
2023-03-14T15:20:42.325Z,479.00
2023-03-14T15:24:42.259Z,473.00
2023-03-14T15:28:42.148Z,473.00
2023-03-14T15:32:42.073Z,469.00
2023-03-14T15:36:41.968Z,461.00
2023-03-14T15:40:41.854Z,464.00
2023-03-14T15:44:41.776Z,460.00
2023-03-14T15:48:41.665Z,457.00
2023-03-14T15:52:41.525Z,459.00
2023-03-14T15:56:41.470Z,455.00
2023-03-14T16:00:41.369Z,451.00
2023-03-14T16:04:41.301Z,456.00
2023-03-14T16:08:41.139Z,449.00
2023-03-14T16:12:41.138Z,451.00
2023-03-14T16:16:41.162Z,447.00
2023-03-14T16:20:48.095Z,446.00
2023-03-14T16:24:41.975Z,444.00
2023-03-14T16:28:40.927Z,440.00
2023-03-14T16:32:40.892Z,444.00
2023-03-14T16:36:40.726Z,438.00
2023-03-14T16:40:40.642Z,437.00
2023-03-14T16:44:40.637Z,444.00
2023-03-14T16:48:40.572Z,445.00
2023-03-14T16:52:40.526Z,448.00
2023-03-14T16:56:40.567Z,444.00
2023-03-14T17:00:40.485Z,449.00
2023-03-14T17:04:40.420Z,453.00
2023-03-14T17:08:40.405Z,456.00
2023-03-14T17:12:40.700Z,458.00
2023-03-14T17:16:40.427Z,459.00
2023-03-14T17:20:40.346Z,454.00
2023-03-14T17:24:40.304Z,454.00
2023-03-14T17:28:40.268Z,464.00
2023-03-14T17:32:40.357Z,460.00
2023-03-14T17:36:40.252Z,451.00
2023-03-14T17:40:40.241Z,453.00
2023-03-14T17:44:40.229Z,448.00
2023-03-14T17:48:40.315Z,451.00
2023-03-14T17:52:40.408Z,447.00
2023-03-14T17:56:40.547Z,442.00
2023-03-14T18:00:40.661Z,440.00
2023-03-14T18:04:40.805Z,439.00
2023-03-14T18:08:40.700Z,437.00
2023-03-14T18:12:40.754Z,434.00
2023-03-14T18:16:40.770Z,429.00
2023-03-14T18:20:40.821Z,427.00
2023-03-14T18:24:40.883Z,436.00
2023-03-14T18:28:40.976Z,430.00
2023-03-14T18:32:41.193Z,432.00
2023-03-14T18:36:41.200Z,432.00
2023-03-14T18:40:41.303Z,430.00
2023-03-14T18:44:41.499Z,430.00
2023-03-14T18:48:41.702Z,433.00
2023-03-14T18:52:41.886Z,429.00
2023-03-14T18:56:42.139Z,430.00
2023-03-14T19:00:42.084Z,429.00
2023-03-14T19:04:42.037Z,432.00
2023-03-14T19:08:41.993Z,429.00
2023-03-14T19:12:41.943Z,431.00
2023-03-14T19:16:41.895Z,433.00
2023-03-14T19:20:41.856Z,429.00
2023-03-14T19:24:41.868Z,433.00
2023-03-14T19:28:41.834Z,429.00
2023-03-14T19:32:41.932Z,431.00
2023-03-14T19:36:41.795Z,430.00
2023-03-14T19:40:41.803Z,428.00
2023-03-14T19:44:41.757Z,431.00
2023-03-14T19:48:41.775Z,437.00
2023-03-14T19:52:41.718Z,439.00
2023-03-14T19:56:41.707Z,443.00
2023-03-14T20:00:41.723Z,446.00
2023-03-14T20:04:41.793Z,443.00
2023-03-14T20:08:41.865Z,441.00
2023-03-14T20:12:41.928Z,437.00
2023-03-14T20:16:42.084Z,448.00
2023-03-14T20:20:42.062Z,439.00
2023-03-14T20:24:42.111Z,440.00
2023-03-14T20:28:42.216Z,444.00
2023-03-14T20:32:42.470Z,445.00
2023-03-14T20:36:42.508Z,440.00
2023-03-14T20:40:42.653Z,436.00
2023-03-14T20:44:42.828Z,437.00
2023-03-14T20:48:42.926Z,432.00
2023-03-14T20:52:43.094Z,437.00
2023-03-14T20:56:43.208Z,436.00
2023-03-14T21:00:43.684Z,442.00
2023-03-14T21:04:43.624Z,436.00
2023-03-14T21:08:43.553Z,440.00
2023-03-14T21:12:43.724Z,439.00
2023-03-14T21:16:43.915Z,439.00
2023-03-14T21:20:44.111Z,436.00
2023-03-14T21:24:44.336Z,437.00
2023-03-14T21:28:44.492Z,443.00
2023-03-14T21:32:44.776Z,441.00
2023-03-14T21:36:45.379Z,432.00
2023-03-14T21:40:45.112Z,439.00
2023-03-14T21:44:45.347Z,436.00
2023-03-14T21:48:45.597Z,433.00
2023-03-14T21:52:45.809Z,432.00
2023-03-14T21:56:45.821Z,437.00
2023-03-14T22:00:45.820Z,437.00
2023-03-14T22:04:45.798Z,445.00
2023-03-14T22:08:45.796Z,441.00
2023-03-14T22:12:45.797Z,437.00
2023-03-14T22:16:45.821Z,434.00
2023-03-14T22:20:45.814Z,446.00
2023-03-14T22:24:45.793Z,437.00
2023-03-14T22:28:45.816Z,445.00
2023-03-14T22:32:45.866Z,440.00
2023-03-14T22:36:46.035Z,443.00
2023-03-14T22:40:46.345Z,445.00
2023-03-14T22:44:46.329Z,436.00
2023-03-14T22:48:46.429Z,435.00
2023-03-14T22:52:46.354Z,439.00
2023-03-14T22:56:46.350Z,432.00
2023-03-14T23:00:46.427Z,434.00
2023-03-14T23:04:46.412Z,436.00
2023-03-14T23:08:46.440Z,437.00
2023-03-14T23:12:46.444Z,438.00
2023-03-14T23:16:46.492Z,441.00
2023-03-14T23:20:48.125Z,436.00
2023-03-14T23:24:46.569Z,431.00
2023-03-14T23:28:46.745Z,434.00
2023-03-14T23:32:46.817Z,430.00
2023-03-14T23:36:46.941Z,440.00
2023-03-14T23:40:47.083Z,436.00
2023-03-14T23:44:47.126Z,432.00
2023-03-14T23:48:47.492Z,429.00
2023-03-14T23:52:47.327Z,428.00
2023-03-14T23:56:47.432Z,436.00
